map of KRP home
KRP - Airport
Location
City:  Karup, Denmark
ICAO:EKKA
IATA:KRP

Details
Type:Airport (Aerodrome, Airfield)
Latitude:5617'51"N (56.297458)
Longitude:907'29"E (9.124628)
Elevation:171 ft (52 m)
Variation:2.83E (WMM2015v2 magnetic declination)
0.20 annual change
Runways:4
Longest:9816 × 75 ft (2992 × 23 m), paved

Time
Time Zone:UTC+1 (DST+2)
Local Time:

Weather
METAR:EKKA 041359Z 19012KT 7000 RASN FEW005 OVC006 02/01 Q1013 R27L/290295 TEMPO 19015G28KT 4000 RASN BKN004
TAF:EKKA 041118Z 0412/0512 19012KT 8000 -RADZ SCT008 BKN012
TEMPO 0412/0414 20015G25KT 2500 RASNDZ BKN004
TEMPO 0414/0423 19018G32KT 2500 RASN BKN004
FM042300 25015KT 9999 BKN020
TEMPO 0500/0512 26015G28KT 5000 SHRA BKN012 SCT020CB

Related Locations
Nearby:
Farthest:CHT: 11533 mi / 18561 km
Waitangi [Tuuta], CIT, NZ

Find:

   beyond  
but within

Other Information
Maps:
NOTAMs:
Links:
Sources:

  
  • flag of Denmark
  

Airport Diagram

Airport diagram for KRP

Larger airport diagram (OBSOLETE) from NGA

Sectional Chart

Flight Planning
at skyvector.com

Satellite Image

Google Maps Satellite view

 

Copyright © 2004-2019 Karl L. Swartz. All rights reserved.
The Great Circle Mapper name and logo are trademarks of the Great Circle Mapper.
All other trademarks mentioned herein belong to their respective owners.
Please see credits for attibutions and further copyright information.

  Follow gcmap on Facebook Follow gcmap on Twitter GCmap on LinkedIn

hCard Microformat

Geo Microformat